Aérodrome :
LOGIN :

S'inscrire | Disclaimer

   EN    FR    IT 

 










Légende :    VFR   VFR Marginal   IFR   IFR Intensif   IFR Très Intensif
Visi : 
Plafond : 
>= 8 km
>= 3000ft
5 à 8 km
1000 à 3000 ft
1500m à 5 km
500 à 1000 ft
800 à 1500m
200 à 500 ft
< 800m
< 200 ft
Symboles :   Orages  Brouillard  Fortes neiges  Fortes précipitations  Vent > 20 kt
SIGMETs :   Divers  Orages  Givrage  Turbulence  Onde Orograph.  Cendres Volcan.







- Altitude de l'aérodrome : 117 ft
- Code IATA : NWI
- Voir les cartes d'approche


EGSH - Norwich

DERNIER METAR :
  • 161450Z 21011KT 8000 SCT016 BKN022 12/09 Q1021 NOSIG

METARs EXPIRÉS :
  • 161420Z 21011KT 9000 FEW015 BKN019 12/09 Q1022 NOSIG
  • 161350Z 21012KT 180V240 8000 FEW015 BKN020 12/09 Q1022
  • 161320Z 21011KT 160V240 8000 FEW018 BKN023 13/10 Q1022 NOSIG
  • 161250Z 22009KT 7000 BKN022 12/09 Q1022
  • 161220Z 21010KT 7000 BKN026 12/09 Q1022 NOSIG
  • 161150Z 20010KT 7000 BKN024 11/09 Q1022 NOSIG

TAF TAF EGSH
Valide du 16 à 15h jusqu'au 17 à 00h UTC


161401Z 1615/1624 21008KT 6000 SCT015 BKN025
BECMG 1615/1618 9000 BKN014
PROB40
TEMPO 1619/1621 6000 BKN006
BECMG 1621/1624 6000 BKN006
PROB30
TEMPO 1621/1624 3000 -DZ BKN003
ATIS : +44 1603 420 640
Pas de NOTAMs connus pour ce terrain.



MET'MAP, la Météo Aéronautique d'un coup d'oeil ! - Copyright ORBIFLY Décembre 2007 - Disclaimer

ORBIFLY MET'MAP TEAM :

Programmation & Développement : Alexandra Zaïnal
Conception & Développement : Baudouin d'Aumeries
Co-Programmation & Développement : Marc-Olivier Méhu
Soutien technique & logistique : Manuel Goepfert

Contact : metmap@orbifly.com




SOURCES & CREDITS :

   NOAA